Time;durP1;ratioP1;P1;durP2;ratioP2;P2;SDS_P1;SDS_P2;PMS_P1;PMS_P2;Temp;Humidity;BMP_temperature;BMP_pressure;BME280_temperature;BME280_humidity;BME280_pressure;Samples;Min_cycle;Max_cycle;Signal;HPM_P1;HPM_P2
2021/10/30 00:00:47;;;;;;;15.15;8.35;;;;;;;;;;5081676;28;20044;-63
2021/10/30 00:03:13;;;;;;;11.07;8.05;;;;;;;;;;5088119;28;20041;-63
2021/10/30 00:05:39;;;;;;;15.52;7.85;;;;;;;;;;5089875;28;20044;-63
2021/10/30 00:08:06;;;;;;;11.63;8.57;;;;;;;;;;5091226;28;20048;-64
2021/10/30 00:10:32;;;;;;;12.48;8.20;;;;;;;;;;5088630;28;20114;-64
2021/10/30 00:12:58;;;;;;;14.85;8.57;;;;;;;;;;5065239;28;20040;-65
2021/10/30 00:15:24;;;;;;;19.30;9.55;;;;;;;;;;5066252;28;20041;-65
2021/10/30 00:17:51;;;;;;;16.27;9.27;;;;;;;;;;5067375;28;20111;-64
2021/10/30 00:20:17;;;;;;;13.10;8.90;;;;;;;;;;5069841;28;20047;-64
2021/10/30 00:22:43;;;;;;;15.48;8.98;;;;;;;;;;5078806;28;20132;-64
2021/10/30 00:25:09;;;;;;;16.55;9.07;;;;;;;;;;5076326;28;20068;-64
2021/10/30 00:27:35;;;;;;;14.27;8.85;;;;;;;;;;5070941;28;20127;-64
2021/10/30 00:30:01;;;;;;;12.63;9.35;;;;;;;;;;5072274;28;20056;-64
2021/10/30 00:32:28;;;;;;;15.93;9.43;;;;;;;;;;5082294;28;20048;-64
2021/10/30 00:34:55;;;;;;;15.63;9.80;;;;;;;;;;5075824;28;20048;-65
2021/10/30 00:37:21;;;;;;;12.20;9.60;;;;;;;;;;5082943;28;20310;-64
2021/10/30 00:39:47;;;;;;;15.02;10.07;;;;;;;;;;5074357;28;20088;-64
2021/10/30 00:42:13;;;;;;;13.93;9.48;;;;;;;;;;5082601;28;20096;-64
2021/10/30 00:44:39;;;;;;;16.45;10.20;;;;;;;;;;5083669;28;20416;-64
2021/10/30 00:47:05;;;;;;;14.00;9.93;;;;;;;;;;5079860;28;20040;-64
2021/10/30 00:49:32;;;;;;;15.55;10.23;;;;;;;;;;5078330;28;20071;-64
2021/10/30 00:51:58;;;;;;;14.52;10.48;;;;;;;;;;5064113;28;20100;-64
2021/10/30 00:54:26;;;;;;;19.52;10.40;;;;;;;;;;5064207;28;20197;-64
2021/10/30 00:56:53;;;;;;;13.27;9.27;;;;;;;;;;5064759;28;20040;-64
2021/10/30 00:59:20;;;;;;;14.25;10.90;;;;;;;;;;5072147;28;20078;-64
2021/10/30 01:01:48;;;;;;;16.42;10.32;;;;;;;;;;5080197;28;20050;-64
2021/10/30 01:04:15;;;;;;;13.20;10.25;;;;;;;;;;5082328;28;20140;-64
2021/10/30 01:06:42;;;;;;;15.88;10.25;;;;;;;;;;5091598;28;20468;-64
2021/10/30 01:09:09;;;;;;;17.88;10.43;;;;;;;;;;5081670;28;20048;-64
2021/10/30 01:11:35;;;;;;;15.18;10.15;;;;;;;;;;5079605;28;20074;-64
2021/10/30 01:14:02;;;;;;;18.38;10.60;;;;;;;;;;5080114;28;20048;-64
2021/10/30 01:16:28;;;;;;;15.68;10.45;;;;;;;;;;5070154;28;20048;-64
2021/10/30 01:18:54;;;;;;;16.38;10.85;;;;;;;;;;5075737;28;20052;-64
2021/10/30 01:21:34;;;;;;;14.30;10.43;;;;;;;;;;5070048;28;20064;-64
2021/10/30 01:24:01;;;;;;;16.17;10.48;;;;;;;;;;5077338;28;20045;-64
2021/10/30 01:26:27;;;;;;;15.55;10.63;;;;;;;;;;5068729;28;20101;-64
2021/10/30 01:28:53;;;;;;;15.10;11.65;;;;;;;;;;5076174;28;20056;-64
2021/10/30 01:31:23;;;;;;;18.23;12.05;;;;;;;;;;5067637;28;20705;-64
2021/10/30 01:33:50;;;;;;;14.02;10.80;;;;;;;;;;5063835;28;20045;-64
2021/10/30 01:36:20;;;;;;;13.50;10.70;;;;;;;;;;5063422;28;20061;-64
2021/10/30 01:38:46;;;;;;;16.55;11.68;;;;;;;;;;5064124;28;20056;-64
2021/10/30 01:41:12;;;;;;;19.58;12.10;;;;;;;;;;5062818;28;20531;-64
2021/10/30 01:43:38;;;;;;;19.10;12.15;;;;;;;;;;5063591;28;20056;-64
2021/10/30 01:46:04;;;;;;;15.77;11.73;;;;;;;;;;5065589;28;20055;-64
2021/10/30 01:48:32;;;;;;;17.48;12.05;;;;;;;;;;5067688;28;20076;-64
2021/10/30 01:50:58;;;;;;;19.23;11.35;;;;;;;;;;5067791;28;20098;-64
2021/10/30 01:53:24;;;;;;;18.02;12.57;;;;;;;;;;5067401;28;20096;-64
2021/10/30 01:55:51;;;;;;;14.98;11.23;;;;;;;;;;5067102;28;20127;-64
2021/10/30 01:58:17;;;;;;;16.75;12.63;;;;;;;;;;5071579;28;20048;-64
2021/10/30 02:00:44;;;;;;;19.13;12.65;;;;;;;;;;5066662;28;20045;-64
2021/10/30 02:03:10;;;;;;;22.52;11.98;;;;;;;;;;5067949;28;20037;-64
2021/10/30 02:05:36;;;;;;;15.30;11.13;;;;;;;;;;5069628;28;20116;-64
2021/10/30 02:08:03;;;;;;;15.57;11.80;;;;;;;;;;5083078;28;20055;-63
2021/10/30 02:10:29;;;;;;;19.05;10.70;;;;;;;;;;5065371;28;20044;-63
2021/10/30 02:12:56;;;;;;;17.38;11.82;;;;;;;;;;5065490;28;20482;-64
2021/10/30 02:15:22;;;;;;;17.03;11.80;;;;;;;;;;5065738;28;20162;-66
2021/10/30 02:17:49;;;;;;;17.45;11.65;;;;;;;;;;5067262;28;20041;-64
2021/10/30 02:20:15;;;;;;;19.30;11.85;;;;;;;;;;5066501;28;20589;-66
2021/10/30 02:22:41;;;;;;;17.23;11.68;;;;;;;;;;5067187;28;20120;-64
2021/10/30 02:25:08;;;;;;;15.85;10.98;;;;;;;;;;5065477;28;20182;-64
2021/10/30 02:27:34;;;;;;;16.30;11.68;;;;;;;;;;5079657;28;20072;-64
2021/10/30 02:30:01;;;;;;;18.35;11.27;;;;;;;;;;5082683;28;20048;-64
2021/10/30 02:32:27;;;;;;;13.32;10.85;;;;;;;;;;5072043;28;20393;-64
2021/10/30 02:34:53;;;;;;;17.00;11.63;;;;;;;;;;5072557;28;20063;-65
2021/10/30 02:37:19;;;;;;;14.63;10.20;;;;;;;;;;5071376;28;20063;-65
2021/10/30 02:39:45;;;;;;;18.75;10.88;;;;;;;;;;5066193;28;20041;-65
2021/10/30 02:42:12;;;;;;;17.63;11.35;;;;;;;;;;5066664;28;20509;-64
2021/10/30 02:44:38;;;;;;;13.57;10.63;;;;;;;;;;5065966;28;20091;-64
2021/10/30 02:47:05;;;;;;;16.92;12.13;;;;;;;;;;5066213;28;20045;-64
2021/10/30 02:49:32;;;;;;;16.27;10.85;;;;;;;;;;5066640;28;20041;-64
2021/10/30 02:51:59;;;;;;;18.83;11.75;;;;;;;;;;5069435;28;20119;-64
2021/10/30 02:54:25;;;;;;;17.23;11.70;;;;;;;;;;5066099;28;20048;-64
2021/10/30 02:56:51;;;;;;;16.40;12.07;;;;;;;;;;5063572;28;20072;-65
2021/10/30 02:59:17;;;;;;;23.30;13.23;;;;;;;;;;5065940;28;20246;-64
2021/10/30 03:01:43;;;;;;;19.98;13.95;;;;;;;;;;5067825;28;20041;-64
2021/10/30 03:04:09;;;;;;;20.02;13.43;;;;;;;;;;5077357;28;20083;-65
2021/10/30 03:06:36;;;;;;;18.65;13.55;;;;;;;;;;5066131;28;20051;-64
2021/10/30 03:09:02;;;;;;;18.63;13.80;;;;;;;;;;5078859;28;20100;-64
2021/10/30 03:11:28;;;;;;;22.02;14.57;;;;;;;;;;5065480;28;20056;-64
2021/10/30 03:13:54;;;;;;;21.73;15.23;;;;;;;;;;5066040;28;20093;-65
2021/10/30 03:16:21;;;;;;;21.83;13.13;;;;;;;;;;5064820;28;20049;-65
2021/10/30 03:18:47;;;;;;;25.60;14.48;;;;;;;;;;5080351;28;20048;-65
2021/10/30 03:21:13;;;;;;;23.33;15.45;;;;;;;;;;5064445;28;20041;-65
2021/10/30 03:23:39;;;;;;;23.77;14.93;;;;;;;;;;5071189;28;20087;-65
2021/10/30 03:26:05;;;;;;;24.58;15.40;;;;;;;;;;5076241;28;20055;-65
2021/10/30 03:28:31;;;;;;;24.48;15.55;;;;;;;;;;5065347;28;20116;-65
2021/10/30 03:30:58;;;;;;;23.00;15.57;;;;;;;;;;5069228;28;20500;-66
2021/10/30 03:33:24;;;;;;;23.15;15.25;;;;;;;;;;5068390;28;20084;-64
2021/10/30 03:35:50;;;;;;;27.48;17.15;;;;;;;;;;5066487;28;20412;-65
2021/10/30 03:38:16;;;;;;;26.58;16.85;;;;;;;;;;5069850;28;20133;-65
2021/10/30 03:40:42;;;;;;;29.75;18.10;;;;;;;;;;5069179;28;20037;-65
2021/10/30 03:43:08;;;;;;;31.98;18.92;;;;;;;;;;5069301;28;20086;-65
2021/10/30 03:45:34;;;;;;;26.73;17.92;;;;;;;;;;5072460;28;20327;-63
2021/10/30 03:48:05;;;;;;;29.50;17.52;;;;;;;;;;5065403;28;20623;-63
2021/10/30 03:50:31;;;;;;;33.70;16.15;;;;;;;;;;5075810;28;20064;-64
2021/10/30 03:52:57;;;;;;;28.92;15.43;;;;;;;;;;5068829;28;20045;-64
2021/10/30 03:55:23;;;;;;;27.02;15.98;;;;;;;;;;5073231;28;20051;-64
2021/10/30 03:57:49;;;;;;;26.38;15.50;;;;;;;;;;5070328;28;20508;-64
2021/10/30 04:00:15;;;;;;;24.17;15.25;;;;;;;;;;5064769;28;20067;-63
2021/10/30 04:02:41;;;;;;;31.75;18.10;;;;;;;;;;5063624;28;20044;-64
2021/10/30 04:05:08;;;;;;;30.88;17.38;;;;;;;;;;5069089;28;20266;-64
2021/10/30 04:07:34;;;;;;;29.80;16.65;;;;;;;;;;5073748;28;20097;-64
2021/10/30 04:10:00;;;;;;;33.53;18.00;;;;;;;;;;5064409;28;20073;-64
2021/10/30 04:12:26;;;;;;;29.40;18.38;;;;;;;;;;5064185;28;20052;-64
2021/10/30 04:14:52;;;;;;;33.25;19.00;;;;;;;;;;5064121;28;20053;-64
2021/10/30 04:17:18;;;;;;;30.60;19.80;;;;;;;;;;5064523;28;20040;-64
2021/10/30 04:19:44;;;;;;;32.90;20.17;;;;;;;;;;5065048;28;20056;-65
2021/10/30 04:22:10;;;;;;;32.53;20.17;;;;;;;;;;5064769;28;20033;-64
2021/10/30 04:24:36;;;;;;;34.05;19.90;;;;;;;;;;5064384;28;20087;-64
2021/10/30 04:27:03;;;;;;;32.90;20.10;;;;;;;;;;5067385;28;20127;-65
2021/10/30 04:29:29;;;;;;;38.05;21.15;;;;;;;;;;5074703;28;20048;-64
2021/10/30 04:31:57;;;;;;;33.40;20.65;;;;;;;;;;5067968;28;20314;-65
2021/10/30 04:34:34;;;;;;;33.72;20.35;;;;;;;;;;5070444;28;20048;-65
2021/10/30 04:37:02;;;;;;;32.63;20.58;;;;;;;;;;5072051;28;20049;-64
2021/10/30 04:39:28;;;;;;;40.78;22.55;;;;;;;;;;5063866;28;20055;-64
2021/10/30 04:41:55;;;;;;;39.85;23.10;;;;;;;;;;5064426;28;20066;-65
2021/10/30 04:44:21;;;;;;;38.15;22.42;;;;;;;;;;5064671;28;20080;-64
2021/10/30 04:46:47;;;;;;;41.80;24.48;;;;;;;;;;5071945;28;20504;-65
2021/10/30 04:49:13;;;;;;;42.42;23.88;;;;;;;;;;5070985;28;20124;-64
2021/10/30 04:51:40;;;;;;;45.97;25.20;;;;;;;;;;5062681;28;20044;-65
2021/10/30 04:54:06;;;;;;;42.47;23.48;;;;;;;;;;5062853;28;20045;-64
2021/10/30 04:56:32;;;;;;;52.72;27.10;;;;;;;;;;5062937;28;20040;-65
2021/10/30 04:58:58;;;;;;;43.03;25.80;;;;;;;;;;5062612;28;20489;-65
2021/10/30 05:01:24;;;;;;;47.50;26.83;;;;;;;;;;5070838;28;20041;-65
2021/10/30 05:03:50;;;;;;;52.17;28.58;;;;;;;;;;5073990;28;20076;-65
2021/10/30 05:06:16;;;;;;;50.88;28.13;;;;;;;;;;5064086;28;20037;-65
2021/10/30 05:08:42;;;;;;;57.70;28.30;;;;;;;;;;5062907;28;20044;-65
2021/10/30 05:11:09;;;;;;;51.25;27.90;;;;;;;;;;5079334;28;20060;-65
2021/10/30 05:13:35;;;;;;;48.57;28.83;;;;;;;;;;5077157;28;20104;-65
2021/10/30 05:16:02;;;;;;;46.50;27.63;;;;;;;;;;5063724;28;20068;-65
2021/10/30 05:18:28;;;;;;;48.55;27.77;;;;;;;;;;5064073;28;20083;-65
2021/10/30 05:20:54;;;;;;;49.10;28.13;;;;;;;;;;5065988;28;20432;-65
2021/10/30 05:23:20;;;;;;;49.95;28.85;;;;;;;;;;5068170;28;20417;-65
2021/10/30 05:25:46;;;;;;;52.20;29.67;;;;;;;;;;5067734;28;20045;-65
2021/10/30 05:28:12;;;;;;;55.30;29.83;;;;;;;;;;5067860;28;20512;-64
2021/10/30 05:30:38;;;;;;;47.58;28.70;;;;;;;;;;5067508;28;20047;-64
2021/10/30 05:33:04;;;;;;;47.30;29.65;;;;;;;;;;5083456;28;20041;-64
2021/10/30 05:35:30;;;;;;;51.05;29.90;;;;;;;;;;5067763;28;20057;-65
2021/10/30 05:37:56;;;;;;;49.08;31.02;;;;;;;;;;5069056;28;20064;-64
2021/10/30 05:40:22;;;;;;;57.17;31.40;;;;;;;;;;5067733;28;20068;-64
2021/10/30 05:42:48;;;;;;;54.22;30.13;;;;;;;;;;5071483;28;20168;-64
2021/10/30 05:45:14;;;;;;;54.03;32.85;;;;;;;;;;5072651;28;20108;-64
2021/10/30 05:47:41;;;;;;;54.08;32.58;;;;;;;;;;5068743;28;20064;-65
2021/10/30 05:50:07;;;;;;;51.35;30.98;;;;;;;;;;5067936;28;20087;-65
2021/10/30 05:52:33;;;;;;;54.35;31.35;;;;;;;;;;5067896;28;20041;-65
2021/10/30 05:54:59;;;;;;;52.45;31.75;;;;;;;;;;5067125;28;20044;-64
2021/10/30 05:57:25;;;;;;;49.55;29.95;;;;;;;;;;5067196;28;20148;-65
2021/10/30 05:59:52;;;;;;;49.08;30.50;;;;;;;;;;5067213;28;20033;-64
2021/10/30 06:02:18;;;;;;;47.72;30.67;;;;;;;;;;5067206;28;20119;-64
2021/10/30 06:04:45;;;;;;;52.92;32.08;;;;;;;;;;5067664;28;20049;-64
2021/10/30 06:07:11;;;;;;;46.75;29.33;;;;;;;;;;5067239;28;20048;-65
2021/10/30 06:09:37;;;;;;;50.85;30.85;;;;;;;;;;5071110;28;20047;-65
2021/10/30 06:12:04;;;;;;;46.42;29.65;;;;;;;;;;5067435;28;20045;-65
2021/10/30 06:14:30;;;;;;;48.58;30.17;;;;;;;;;;5067033;28;20054;-65
2021/10/30 06:16:56;;;;;;;43.53;28.30;;;;;;;;;;5067617;28;20045;-64
2021/10/30 06:19:24;;;;;;;38.08;26.38;;;;;;;;;;5066581;28;20044;-64
2021/10/30 06:21:50;;;;;;;38.60;26.33;;;;;;;;;;5066988;28;20072;-64
2021/10/30 06:24:16;;;;;;;41.00;27.23;;;;;;;;;;5066959;28;20040;-63
2021/10/30 06:26:42;;;;;;;32.75;23.58;;;;;;;;;;5078356;28;20049;-63
2021/10/30 06:29:08;;;;;;;30.33;20.90;;;;;;;;;;5067257;28;20056;-65
2021/10/30 06:31:34;;;;;;;31.02;22.50;;;;;;;;;;5066844;28;20043;-65
2021/10/30 06:34:01;;;;;;;32.60;22.20;;;;;;;;;;5065747;28;20103;-65
2021/10/30 06:36:27;;;;;;;33.38;19.83;;;;;;;;;;5066135;28;20061;-65
2021/10/30 06:38:53;;;;;;;29.85;20.15;;;;;;;;;;5066782;28;20076;-65
2021/10/30 06:41:19;;;;;;;26.67;19.02;;;;;;;;;;5066170;28;20092;-65
2021/10/30 06:43:45;;;;;;;26.27;19.23;;;;;;;;;;5066891;28;20056;-65
2021/10/30 06:46:11;;;;;;;27.17;19.17;;;;;;;;;;5068401;28;20116;-65
2021/10/30 06:48:37;;;;;;;29.70;18.98;;;;;;;;;;5066618;28;20052;-65
2021/10/30 06:51:04;;;;;;;27.60;18.20;;;;;;;;;;5066317;28;20087;-65
2021/10/30 06:53:31;;;;;;;24.13;17.83;;;;;;;;;;5066191;28;20044;-64
2021/10/30 06:55:58;;;;;;;22.25;16.40;;;;;;;;;;5064598;28;20098;-65
2021/10/30 06:58:26;;;;;;;21.60;15.85;;;;;;;;;;5065728;28;20053;-65
2021/10/30 07:00:52;;;;;;;;;;;;;;;;;;5071998;28;20103;-64
2021/10/30 07:03:18;;;;;;;23.55;14.38;;;;;;;;;;5066153;28;19944;-65
2021/10/30 07:05:44;;;;;;;29.00;16.40;;;;;;;;;;5065673;28;20051;-65
2021/10/30 07:08:10;;;;;;;19.52;13.07;;;;;;;;;;5067918;28;20067;-65
2021/10/30 07:10:36;;;;;;;20.67;14.23;;;;;;;;;;5078159;28;20044;-65
2021/10/30 07:13:02;;;;;;;21.25;12.98;;;;;;;;;;5066023;28;20064;-65
2021/10/30 07:15:28;;;;;;;17.75;13.10;;;;;;;;;;5065472;28;20045;-64
2021/10/30 07:17:54;;;;;;;17.92;13.10;;;;;;;;;;5065926;28;20105;-65
2021/10/30 07:20:20;;;;;;;15.85;11.82;;;;;;;;;;5065706;28;20041;-64
2021/10/30 07:22:48;;;;;;;18.38;11.77;;;;;;;;;;5066066;28;20098;-64
2021/10/30 07:25:15;;;;;;;17.75;12.30;;;;;;;;;;5079512;28;20049;-64
2021/10/30 07:27:42;;;;;;;17.60;11.40;;;;;;;;;;5065145;28;20041;-64
2021/10/30 07:30:08;;;;;;;17.52;11.35;;;;;;;;;;5069390;28;20057;-64
2021/10/30 07:32:35;;;;;;;16.88;11.18;;;;;;;;;;5065834;28;20101;-64
2021/10/30 07:35:02;;;;;;;14.45;10.32;;;;;;;;;;5065831;28;20123;-64
2021/10/30 07:37:28;;;;;;;14.23;10.10;;;;;;;;;;5065562;28;20053;-64
2021/10/30 07:39:55;;;;;;;13.13;9.43;;;;;;;;;;5065269;28;20048;-64
2021/10/30 07:42:22;;;;;;;15.10;10.75;;;;;;;;;;5064715;28;20543;-64
2021/10/30 07:44:48;;;;;;;13.88;9.70;;;;;;;;;;5063918;28;20041;-64
2021/10/30 07:47:14;;;;;;;15.50;11.55;;;;;;;;;;5065687;28;20045;-64
2021/10/30 07:49:40;;;;;;;16.95;10.40;;;;;;;;;;5074944;28;20041;-64
2021/10/30 07:52:06;;;;;;;19.15;11.55;;;;;;;;;;5065147;28;20045;-64
2021/10/30 07:54:33;;;;;;;16.65;10.02;;;;;;;;;;5067809;28;20052;-63
2021/10/30 07:57:00;;;;;;;21.93;10.03;;;;;;;;;;5063966;28;20072;-64
2021/10/30 07:59:26;;;;;;;15.90;11.75;;;;;;;;;;5076413;28;20407;-64
2021/10/30 08:01:52;;;;;;;17.23;11.98;;;;;;;;;;5076486;28;20127;-63
2021/10/30 08:04:18;;;;;;;20.20;11.45;;;;;;;;;;5084037;28;20037;-64
2021/10/30 08:06:45;;;;;;;16.35;10.18;;;;;;;;;;5072109;28;20076;-63
2021/10/30 08:09:11;;;;;;;17.02;10.27;;;;;;;;;;5064984;28;20075;-64
2021/10/30 08:11:37;;;;;;;16.67;11.35;;;;;;;;;;5071526;28;20043;-64
2021/10/30 08:14:03;;;;;;;22.10;12.02;;;;;;;;;;5065039;28;20094;-63
2021/10/30 08:16:30;;;;;;;19.25;12.27;;;;;;;;;;5078011;28;20059;-64
2021/10/30 08:18:56;;;;;;;13.63;10.45;;;;;;;;;;5084495;28;20428;-65
2021/10/30 08:21:22;;;;;;;17.50;12.52;;;;;;;;;;5083814;28;20121;-65
2021/10/30 08:23:49;;;;;;;19.15;12.73;;;;;;;;;;5087197;28;20071;-65
2021/10/30 08:26:16;;;;;;;14.73;11.40;;;;;;;;;;5086031;28;20044;-65
2021/10/30 08:28:42;;;;;;;19.17;12.38;;;;;;;;;;5084114;28;20052;-65
2021/10/30 08:31:08;;;;;;;15.75;11.80;;;;;;;;;;5083974;28;20044;-64
2021/10/30 08:33:34;;;;;;;24.13;12.57;;;;;;;;;;5081752;28;20061;-65
2021/10/30 08:36:00;;;;;;;16.23;12.52;;;;;;;;;;5080350;28;20040;-65
2021/10/30 08:38:26;;;;;;;16.70;11.80;;;;;;;;;;5087806;28;20048;-64
2021/10/30 08:40:53;;;;;;;18.98;12.05;;;;;;;;;;5084456;28;20589;-64
2021/10/30 08:43:20;;;;;;;19.90;12.50;;;;;;;;;;5083057;28;20040;-64
2021/10/30 08:45:47;;;;;;;21.17;12.82;;;;;;;;;;5069273;28;20073;-64
2021/10/30 08:48:13;;;;;;;23.60;12.77;;;;;;;;;;5075451;28;20044;-64
2021/10/30 08:50:40;;;;;;;17.80;12.05;;;;;;;;;;5074800;28;20299;-65
2021/10/30 08:53:06;;;;;;;19.70;12.52;;;;;;;;;;5081581;28;20044;-64
2021/10/30 08:55:32;;;;;;;17.08;12.75;;;;;;;;;;5074705;28;20044;-62
2021/10/30 08:58:05;;;;;;;12.75;10.15;;;;;;;;;;5081054;28;20040;-62
2021/10/30 09:00:31;;;;;;;20.27;12.38;;;;;;;;;;5077756;28;20104;-63
2021/10/30 09:02:59;;;;;;;21.98;12.73;;;;;;;;;;5077141;28;20489;-63
2021/10/30 09:05:26;;;;;;;19.27;13.13;;;;;;;;;;5078222;28;20054;-63
2021/10/30 09:07:53;;;;;;;16.92;12.02;;;;;;;;;;5080111;28;20075;-63
2021/10/30 09:10:24;;;;;;;16.45;11.40;;;;;;;;;;5084390;28;20123;-63
2021/10/30 09:12:51;;;;;;;20.15;11.73;;;;;;;;;;5085500;28;20048;-63
2021/10/30 09:15:20;;;;;;;17.92;12.70;;;;;;;;;;5074024;28;20103;-63
2021/10/30 09:17:47;;;;;;;17.15;12.05;;;;;;;;;;5086895;28;20052;-62
2021/10/30 09:20:15;;;;;;;19.52;12.65;;;;;;;;;;5076006;28;20052;-62
2021/10/30 09:22:41;;;;;;;17.23;11.88;;;;;;;;;;5082085;28;20053;-62
2021/10/30 09:25:10;;;;;;;14.85;10.90;;;;;;;;;;5073142;28;20037;-62
2021/10/30 09:27:50;;;;;;;19.38;13.07;;;;;;;;;;5080133;28;20493;-62
2021/10/30 09:30:22;;;;;;;16.70;11.50;;;;;;;;;;5072524;28;20063;-62
2021/10/30 09:32:59;;;;;;;19.77;10.30;;;;;;;;;;5079808;28;20693;-62
2021/10/30 09:35:27;;;;;;;16.27;10.68;;;;;;;;;;5071170;28;20102;-63
2021/10/30 09:37:53;;;;;;;12.98;10.40;;;;;;;;;;5070856;28;20049;-62
2021/10/30 09:40:27;;;;;;;14.45;10.23;;;;;;;;;;5066711;28;20096;-62
2021/10/30 09:43:13;;;;;;;17.55;10.73;;;;;;;;;;5071915;28;20083;-62
2021/10/30 09:45:50;;;;;;;18.17;11.10;;;;;;;;;;5065701;28;20056;-62
2021/10/30 09:48:17;;;;;;;20.63;11.60;;;;;;;;;;5064118;28;20041;-62
2021/10/30 09:50:44;;;;;;;20.02;11.38;;;;;;;;;;5068147;28;20468;-63
2021/10/30 09:53:42;;;;;;;14.85;11.07;;;;;;;;;;5084587;28;20044;-62
2021/10/30 09:56:10;;;;;;;14.82;11.05;;;;;;;;;;5030708;28;20050;-62
2021/10/30 09:58:36;;;;;;;16.33;11.18;;;;;;;;;;5025335;28;20089;-62
2021/10/30 10:01:04;;;;;;;13.88;10.27;;;;;;;;;;5021675;28;20069;-62
2021/10/30 10:03:30;;;;;;;;;;;;;;;;;;5034879;28;20049;-62
2021/10/30 10:05:56;;;;;;;12.70;8.27;;;;;;;;;;5030890;28;19927;-63
2021/10/30 10:08:23;;;;;;;12.80;8.13;;;;;;;;;;5020608;28;20050;-63
2021/10/30 10:10:50;;;;;;;17.15;10.30;;;;;;;;;;5009038;28;20407;-63
2021/10/30 10:13:16;;;;;;;10.20;7.90;;;;;;;;;;5020525;28;20065;-63
2021/10/30 10:15:43;;;;;;;11.77;8.35;;;;;;;;;;5024569;28;20078;-63
2021/10/30 10:18:09;;;;;;;12.63;7.97;;;;;;;;;;5021891;28;20612;-63
2021/10/30 10:20:35;;;;;;;10.27;7.50;;;;;;;;;;5021133;28;20424;-63
2021/10/30 10:23:01;;;;;;;9.90;7.75;;;12.00;99.90;;;;;;5027798;28;20130;-63
2021/10/30 10:25:34;;;;;;;11.82;7.72;;;;;;;;;;5008882;28;20045;-63
2021/10/30 10:28:19;;;;;;;10.75;7.32;;;;;;;;;;5019602;28;20136;-63
2021/10/30 10:30:53;;;;;;;13.48;7.75;;;;;;;;;;5016069;28;20086;-63
2021/10/30 10:33:19;;;;;;;11.50;8.02;;;;;;;;;;5082464;28;20043;-63
2021/10/30 10:36:03;;;;;;;10.02;7.00;;;;;;;;;;5080565;28;20048;-63
2021/10/30 10:38:48;;;;;;;9.30;6.93;;;;;;;;;;5081520;28;20052;-64
2021/10/30 10:41:33;;;;;;;8.40;6.20;;;;;;;;;;5080304;28;20064;-63
2021/10/30 10:43:59;;;;;;;9.85;6.15;;;;;;;;;;5092395;28;20056;-77
2021/10/30 10:46:25;;;;;;;8.68;7.13;;;;;;;;;;5082023;28;20052;-79
2021/10/30 10:48:51;;;;;;;9.13;6.38;;;;;;;;;;5088839;28;20048;-73
2021/10/30 10:51:21;;;;;;;11.98;7.32;;;;;;;;;;5094629;28;20052;-73
2021/10/30 10:53:57;;;;;;;10.82;7.00;;;;;;;;;;5087283;28;20124;-74
2021/10/30 10:56:23;;;;;;;8.63;5.88;;;;;;;;;;5067888;28;20055;-74
2021/10/30 10:59:01;;;;;;;9.63;6.55;;;;;;;;;;5086865;28;20052;-77
2021/10/30 11:01:27;;;;;;;12.13;6.72;;;;;;;;;;5083544;28;20049;-76
2021/10/30 11:04:09;;;;;;;14.45;7.13;;;;;;;;;;5076024;28;20052;-62
2021/10/30 11:06:41;;;;;;;9.85;7.30;;;;;;;;;;5087736;28;20040;-64
2021/10/30 11:09:15;;;;;;;10.63;6.97;;;;;;;;;;5088175;28;20036;-65
2021/10/30 11:11:41;;;;;;;8.25;6.65;;;;;;;;;;5076669;28;20036;-65
2021/10/30 11:14:08;;;;;;;10.63;6.95;;;;;;;;;;5073324;28;20044;-65
2021/10/30 11:16:42;;;;;;;12.32;6.28;;;;;;;;;;5076655;28;20056;-65
2021/10/30 11:19:14;;;;;;;11.48;7.30;;;;;;;;;;5076953;28;20037;-65
2021/10/30 11:21:44;;;;;;;11.13;7.00;;;;;;;;;;5081470;28;20079;-65
2021/10/30 11:24:17;;;;;;;11.18;6.25;;;;;;;;;;5080666;28;20452;-64
2021/10/30 11:26:44;;;;;;;6.90;5.93;;;;;;;;;;5080096;28;20044;-64
2021/10/30 11:29:11;;;;;;;10.57;6.13;;;;;;;;;;5073052;28;20056;-64
2021/10/30 11:31:37;;;;;;;8.50;7.37;;;;;;;;;;5082966;28;20052;-64
2021/10/30 11:34:05;;;;;;;10.45;6.72;;;;;;;;;;5077458;28;20044;-63
2021/10/30 11:36:32;;;;;;;9.18;6.25;;;;;;;;;;5079876;28;20057;-65
2021/10/30 11:38:58;;;;;;;;;;;;;;;;;;5072779;28;20103;-65
2021/10/30 11:41:26;;;;;;;9.52;6.05;;;;;;;;;;5069295;28;19924;-64
2021/10/30 11:43:56;;;;;;;8.35;5.57;;;;;;;;;;5082280;28;20056;-63
2021/10/30 11:46:23;;;;;;;8.45;6.03;;;;;;;;;;5071096;28;20127;-63
2021/10/30 11:48:50;;;;;;;7.57;5.40;;;;;;;;;;5074527;28;20048;-64
2021/10/30 11:51:17;;;;;;;9.02;6.50;;;;;;;;;;5068922;28;20068;-64
2021/10/30 11:53:44;;;;;;;8.85;5.80;;;;;;;;;;5072186;28;20184;-64
2021/10/30 11:56:15;;;;;;;10.13;5.97;;;;;;;;;;5069561;28;20049;-63
2021/10/30 11:58:41;;;;;;;8.15;5.45;;;;;;;;;;5065139;28;20114;-65
2021/10/30 12:01:37;;;;;;;7.50;5.97;;;;;;;;;;5065054;28;20052;-64
2021/10/30 12:04:06;;;;;;;10.38;6.45;;;;;;;;;;5060499;28;20056;-64
2021/10/30 12:06:40;;;;;;;10.38;6.15;;;;;;;;;;5065057;28;20073;-64
2021/10/30 12:09:19;;;;;;;9.20;6.38;;;;;;;;;;5065854;28;20049;-64
2021/10/30 12:11:46;;;;;;;8.27;6.32;;;;;;;;;;5064509;28;20037;-64
2021/10/30 12:14:12;;;;;;;10.10;6.70;;;;;;;;;;5065086;28;20089;-64
2021/10/30 12:16:41;;;;;;;10.27;5.93;;;;;;;;;;5075217;28;20086;-64
2021/10/30 12:19:07;;;;;;;9.15;6.03;;;;;;;;;;5068265;28;20044;-64
2021/10/30 12:21:34;;;;;;;9.02;6.45;;;;;;;;;;5065808;28;20045;-64
2021/10/30 12:24:04;;;;;;;9.00;5.55;;;;;;;;;;5080405;28;20048;-64
2021/10/30 12:26:32;;;;;;;7.93;5.88;;;;;;;;;;5067698;28;20102;-64
2021/10/30 12:29:33;;;;;;;6.80;5.68;;;;;;;;;;5063494;28;20041;-64
2021/10/30 12:32:04;;;;;;;9.50;5.88;;;;;;;;;;5025646;28;20140;-64
2021/10/30 12:34:31;;;;;;;8.98;5.80;;;;;;;;;;5036888;28;20545;-65
2021/10/30 12:36:58;;;;;;;9.70;6.10;;;;;;;;;;5034306;28;20053;-64
2021/10/30 12:39:24;;;;;;;10.68;6.18;;;;;;;;;;5031757;28;20065;-64
2021/10/30 12:41:58;;;;;;;7.57;5.30;;;;;;;;;;5033540;28;20041;-64
2021/10/30 12:44:30;;;;;;;6.82;5.20;;;;;;;;;;5040248;28;20084;-64
2021/10/30 12:46:57;;;;;;;7.32;5.30;;;;;;;;;;5039075;28;20061;-64
2021/10/30 12:49:24;;;;;;;6.50;5.10;;;;;;;;;;5031679;28;20058;-64
2021/10/30 12:51:57;;;;;;;7.82;5.00;;;;;;;;;;5036546;28;20065;-64
2021/10/30 12:54:27;;;;;;;8.57;5.50;;;;;;;;;;5023709;28;20561;-64
2021/10/30 12:56:53;;;;;;;6.88;5.50;;;;;;;;;;5040677;28;20452;-63
2021/10/30 12:59:23;;;;;;;6.35;5.10;;;;;;;;;;5036261;28;20067;-62
2021/10/30 13:01:55;;;;;;;10.77;5.75;;;;;;;;;;5041464;28;20041;-62
2021/10/30 13:04:31;;;;;;;6.78;4.95;;;;;;;;;;5032827;28;20145;-62
2021/10/30 13:07:03;;;;;;;7.38;5.10;;;;;;;;;;5062434;28;20056;-62
2021/10/30 13:09:29;;;;;;;8.05;6.05;;;;;;;;;;5068775;28;20044;-62
2021/10/30 13:11:55;;;;;;;9.13;5.72;;;;;;;;;;5065956;28;20416;-62
2021/10/30 13:14:22;;;;;;;7.85;5.55;;;;;;;;;;5075873;28;20128;-63
2021/10/30 13:16:48;;;;;;;6.35;5.18;;;;;;;;;;5067883;28;20045;-63
2021/10/30 13:19:14;;;;;;;6.32;4.68;;;;;;;;;;5075735;28;20443;-63
2021/10/30 13:21:42;;;;;;;6.95;5.03;;;;;;;;;;5064396;28;20041;-63
2021/10/30 13:24:09;;;;;;;9.38;5.70;;;;;;;;;;5067558;28;20052;-63
2021/10/30 13:26:35;;;;;;;6.40;5.63;;;;;;;;;;5070734;28;20165;-63
2021/10/30 13:29:02;;;;;;;7.18;5.28;;;;;;;;;;5070667;28;20082;-63
2021/10/30 13:31:28;;;;;;;7.57;5.22;;;;;;;;;;5088095;28;20044;-63
2021/10/30 13:33:54;;;;;;;7.50;5.18;;;;;;;;;;5076158;28;20067;-63
2021/10/30 13:36:30;;;;;;;6.93;4.90;;;;;;;;;;5077702;28;20077;-63
2021/10/30 13:38:58;;;;;;;8.75;5.88;;;;;;;;;;5083515;28;20605;-63
2021/10/30 13:41:26;;;;;;;8.88;4.60;;;;;;;;;;5081543;28;20049;-63
2021/10/30 13:43:52;;;;;;;;;;;;;;;;;;5090463;28;20047;-64
2021/10/30 13:46:19;;;;;;;6.72;5.18;;;;;;;;;;5069898;28;19921;-64
2021/10/30 13:48:46;;;;;;;10.88;5.25;;;;;;;;;;5078612;28;20047;-64
2021/10/30 13:51:12;;;;;;;5.87;4.83;;;;;;;;;;5088682;28;20040;-64
2021/10/30 13:53:38;;;;;;;8.80;5.55;;;;;;;;;;5085938;28;20032;-64
2021/10/30 13:56:05;;;;;;;6.82;4.13;;;;;;;;;;5075337;28;20115;-64
2021/10/30 13:58:31;;;;;;;6.68;4.70;;;;;;;;;;5084367;28;20048;-64
2021/10/30 14:00:57;;;;;;;9.25;4.20;;;;;;;;;;5074112;28;20076;-64
2021/10/30 14:03:23;;;;;;;5.82;4.10;;;;;;;;;;5089628;28;20045;-64
2021/10/30 14:05:49;;;;;;;6.95;4.57;;;;;;;;;;5067447;28;20033;-64
2021/10/30 14:08:15;;;;;;;8.75;3.58;;;;;;;;;;5079260;28;20048;-65
2021/10/30 14:10:41;;;;;;;8.80;3.95;;;;;;;;;;5066588;28;20063;-64
2021/10/30 14:13:08;;;;;;;5.82;3.78;;;;;;;;;;5086046;28;20048;-64
2021/10/30 14:15:35;;;;;;;5.07;3.83;;;;;;;;;;5067878;28;20205;-64
2021/10/30 14:18:01;;;;;;;6.20;3.95;;;;;;;;;;5076733;28;20552;-65
2021/10/30 14:20:28;;;;;;;6.60;3.45;;;;;;;;;;5082619;28;20041;-64
2021/10/30 14:22:54;;;;;;;7.05;3.53;;;;;;;;;;5071490;28;20076;-64
2021/10/30 14:25:20;;;;;;;4.45;3.60;;;;;;;;;;5068069;28;20123;-64
2021/10/30 14:27:46;;;;;;;4.45;3.13;;;;;;;;;;5088269;28;20051;-64